Time,TemperatureF,DewpointF,PressureIn,WindDirection,WindDirectionDegrees,WindSpeedMPH,WindSpeedGustMPH,Humidity,HourlyPrecipIn,Conditions,Clouds,dailyrainin,SoftwareType,DateUTC
2013-04-01 00:00:00,41.3,39.7,27.03,WNW,290,6.0,18.0,94,0.00,,,-99.99,Weather View 32 v60,2013-04-01 04:00:00,
2013-04-01 00:20:00,41.0,39.4,27.02,WNW,294,6.0,17.0,94,0.00,,,-99.99,Weather View 32 v60,2013-04-01 04:20:00,
2013-04-01 00:40:00,41.2,39.6,27.02,WNW,283,8.0,16.0,94,0.00,,,-99.99,Weather View 32 v60,2013-04-01 04:40:00,
2013-04-01 01:00:00,41.3,39.7,27.02,WNW,295,10.0,16.0,94,0.00,,,-99.99,Weather View 32 v60,2013-04-01 05:00:00,
2013-04-01 01:20:00,41.4,39.8,27.03,WNW,290,6.0,16.0,94,0.00,,,-99.99,Weather View 32 v60,2013-04-01 05:20:00,
2013-04-01 01:40:00,41.5,39.9,27.03,NW,306,12.0,16.0,94,0.00,,,-99.99,Weather View 32 v60,2013-04-01 05:40:00,
2013-04-01 02:00:00,41.4,39.5,27.03,WNW,282,9.0,16.0,93,0.00,,,-99.99,Weather View 32 v60,2013-04-01 06:00:00,
2013-04-01 02:20:00,41.4,39.5,27.03,NW,317,6.0,17.0,93,0.00,,,-99.99,Weather View 32 v60,2013-04-01 06:20:00,
2013-04-01 02:40:00,41.3,39.4,27.03,West,280,8.0,17.0,93,0.00,,,-99.99,Weather View 32 v60,2013-04-01 06:40:00,
2013-04-01 03:00:00,41.1,39.2,27.02,WSW,249,7.0,17.0,93,0.00,,,-99.99,Weather View 32 v60,2013-04-01 07:00:00,
2013-04-01 03:20:00,41.2,39.3,27.01,West,276,8.0,18.0,93,0.00,,,-99.99,Weather View 32 v60,2013-04-01 07:20:00,
2013-04-01 03:40:00,41.4,39.5,27.01,WSW,251,6.0,19.0,93,0.00,,,-99.99,Weather View 32 v60,2013-04-01 07:40:00,
2013-04-01 04:00:00,41.7,39.8,27.00,WSW,239,8.0,19.0,93,0.00,,,-99.99,Weather View 32 v60,2013-04-01 08:00:00,
2013-04-01 04:20:00,41.4,39.5,27.00,WNW,285,9.0,19.0,93,0.00,,,-99.99,Weather View 32 v60,2013-04-01 08:20:00,
2013-04-01 04:40:00,40.9,39.8,26.99,West,262,5.0,25.0,96,0.00,,,-99.99,Weather View 32 v60,2013-04-01 08:40:00,
2013-04-01 05:00:00,41.2,40.1,26.99,WNW,282,13.0,25.0,96,0.00,,,-99.99,Weather View 32 v60,2013-04-01 09:00:00,
2013-04-01 05:20:00,41.6,40.5,27.00,WSW,257,6.0,25.0,96,0.00,,,-99.99,Weather View 32 v60,2013-04-01 09:20:00,
2013-04-01 05:40:00,41.4,40.1,27.00,WSW,253,4.0,23.0,95,0.00,,,-99.99,Weather View 32 v60,2013-04-01 09:40:00,
2013-04-01 06:00:00,41.2,39.9,27.00,West,264,10.0,23.0,95,0.00,,,-99.99,Weather View 32 v60,2013-04-01 10:00:00,
2013-04-01 06:20:00,41.1,39.5,27.00,WNW,287,8.0,23.0,94,0.00,,,-99.99,Weather View 32 v60,2013-04-01 10:20:00,
2013-04-01 06:40:00,41.1,39.5,27.00,West,281,15.0,22.0,94,0.00,,,-99.99,Weather View 32 v60,2013-04-01 10:40:00,
2013-04-01 07:00:00,40.9,39.3,27.00,WNW,299,12.0,22.0,94,0.00,,,-99.99,Weather View 32 v60,2013-04-01 11:00:00,
2013-04-01 07:20:00,40.9,39.3,27.01,NW,305,9.0,22.0,94,0.00,,,-99.99,Weather View 32 v60,2013-04-01 11:20:00,
2013-04-01 07:40:00,40.6,38.7,27.02,NW,309,12.0,22.0,93,0.00,,,-99.99,Weather View 32 v60,2013-04-01 11:40:00,
2013-04-01 08:00:00,40.6,38.5,27.03,WNW,297,16.0,22.0,92,0.00,,,-99.99,Weather View 32 v60,2013-04-01 12:00:00,
2013-04-01 08:20:00,40.6,38.2,27.03,NW,314,11.0,22.0,91,0.00,,,-99.99,Weather View 32 v60,2013-04-01 12:20:00,
2013-04-01 08:40:00,40.0,37.3,27.03,WNW,295,4.0,20.0,90,0.00,,,-99.99,Weather View 32 v60,2013-04-01 12:40:00,
2013-04-01 09:00:00,40.4,35.6,27.04,WNW,289,5.0,21.0,83,0.00,,,-99.99,Weather View 32 v60,2013-04-01 13:00:00,
2013-04-01 09:20:00,43.0,35.3,27.04,NW,305,9.0,21.0,74,0.00,,,-99.99,Weather View 32 v60,2013-04-01 13:20:00,
2013-04-01 09:40:00,40.1,34.4,27.04,NNW,341,15.0,21.0,80,0.00,,,-99.99,Weather View 32 v60,2013-04-01 13:40:00,
2013-04-01 10:00:00,40.9,34.9,27.04,NW,312,5.0,20.0,79,0.00,,,-99.99,Weather View 32 v60,2013-04-01 14:00:00,
2013-04-01 10:20:00,40.2,33.6,27.05,NW,309,8.0,18.0,77,0.00,,,-99.99,Weather View 32 v60,2013-04-01 14:20:00,
2013-04-01 10:40:00,36.8,32.4,27.06,NW,306,8.0,17.0,84,0.00,,,-99.99,Weather View 32 v60,2013-04-01 14:40:00,
2013-04-01 11:00:00,34.4,32.0,27.07,NNW,329,9.0,17.0,91,0.02,,,-99.99,Weather View 32 v60,2013-04-01 15:00:00,
2013-04-01 11:20:00,33.0,30.9,27.08,NNW,343,4.0,17.0,92,0.03,,,-99.99,Weather View 32 v60,2013-04-01 15:20:00,
2013-04-01 11:40:00,32.6,31.1,27.08,NNW,345,8.0,17.0,94,0.05,,,-99.99,Weather View 32 v60,2013-04-01 15:40:00,
2013-04-01 12:00:00,32.4,30.9,27.09,NW,322,4.0,14.0,94,0.04,,,-99.99,Weather View 32 v60,2013-04-01 16:00:00,
2013-04-01 12:20:00,32.6,31.1,27.09,NNW,327,9.0,15.0,94,0.04,,,-99.99,Weather View 32 v60,2013-04-01 16:20:00,
2013-04-01 12:40:00,32.9,31.4,27.10,NNW,331,5.0,15.0,94,0.03,,,-99.99,Weather View 32 v60,2013-04-01 16:40:00,
2013-04-01 13:00:00,33.5,31.7,27.10,NW,305,5.0,17.0,93,0.02,,,-99.99,Weather View 32 v60,2013-04-01 17:00:00,
2013-04-01 13:20:00,32.3,30.8,27.10,WNW,297,7.0,17.0,94,0.02,,,-99.99,Weather View 32 v60,2013-04-01 17:20:00,
2013-04-01 13:40:00,33.3,31.5,27.11,West,269,1.0,18.0,93,0.01,,,-99.99,Weather View 32 v60,2013-04-01 17:40:00,
2013-04-01 13:41:00,33.3,31.5,27.11,West,269,1.0,18.0,93,0.01,,,-99.99,Weather View 32 v60,2013-04-01 17:41:00,
2013-04-01 14:00:00,34.6,32.5,27.11,NW,306,2.0,18.0,92,0.01,,,-99.99,Weather View 32 v60,2013-04-01 18:00:00,
2013-04-01 14:20:00,34.3,32.2,27.11,WNW,301,6.0,18.0,92,0.01,,,-99.99,Weather View 32 v60,2013-04-01 18:20:00,
2013-04-01 14:40:00,32.4,30.3,27.11,NW,317,11.0,18.0,92,0.01,,,-99.99,Weather View 32 v60,2013-04-01 18:40:00,
2013-04-01 14:42:00,32.4,30.3,27.11,NW,317,11.0,18.0,92,0.01,,,-99.99,Weather View 32 v60,2013-04-01 18:42:00,
2013-04-01 15:00:00,31.7,29.9,27.12,NNW,328,5.0,18.0,93,0.02,,,-99.99,Weather View 32 v60,2013-04-01 19:00:00,
2013-04-01 15:20:00,32.1,30.0,27.12,North,353,13.0,18.0,92,0.01,,,-99.99,Weather View 32 v60,2013-04-01 19:20:00,
2013-04-01 15:40:00,32.5,30.7,27.12,NW,325,5.0,18.0,93,0.01,,,-99.99,Weather View 32 v60,2013-04-01 19:40:00,
2013-04-01 15:43:00,32.5,30.7,27.12,NW,325,5.0,18.0,93,0.01,,,-99.99,Weather View 32 v60,2013-04-01 19:43:00,
2013-04-01 16:00:00,34.2,31.8,27.12,West,279,8.0,17.0,91,0.00,,,-99.99,Weather View 32 v60,2013-04-01 20:00:00,
2013-04-01 16:20:00,36.6,33.9,27.12,NNW,328,6.0,18.0,90,0.00,,,-99.99,Weather View 32 v60,2013-04-01 20:20:00,
2013-04-01 16:40:00,32.1,30.0,27.12,WNW,290,6.0,18.0,92,0.00,,,-99.99,Weather View 32 v60,2013-04-01 20:40:00,
2013-04-01 16:43:00,32.1,30.0,27.12,WNW,290,6.0,18.0,92,0.00,,,-99.99,Weather View 32 v60,2013-04-01 20:43:00,
2013-04-01 17:00:00,34.2,32.1,27.12,NW,310,8.0,18.0,92,0.00,,,-99.99,Weather View 32 v60,2013-04-01 21:00:00,
2013-04-01 17:20:00,36.4,33.7,27.12,NW,317,6.0,17.0,90,0.00,,,-99.99,Weather View 32 v60,2013-04-01 21:20:00,
2013-04-01 17:40:00,36.2,33.3,27.12,NW,306,8.0,19.0,89,0.00,,,-99.99,Weather View 32 v60,2013-04-01 21:40:00,
2013-04-01 17:44:00,36.2,33.3,27.12,NW,306,8.0,19.0,89,0.00,,,-99.99,Weather View 32 v60,2013-04-01 21:44:00,
2013-04-01 18:00:00,34.7,32.1,27.12,NNW,334,5.0,19.0,90,0.00,,,-99.99,Weather View 32 v60,2013-04-01 22:00:00,
2013-04-01 18:20:00,34.6,31.4,27.13,WNW,298,9.0,19.0,88,0.00,,,-99.99,Weather View 32 v60,2013-04-01 22:20:00,
2013-04-01 18:40:00,35.1,31.3,27.14,NW,324,4.0,16.0,86,0.00,,,-99.99,Weather View 32 v60,2013-04-01 22:40:00,
2013-04-01 18:45:00,35.1,31.3,27.14,NW,324,4.0,16.0,86,0.00,,,-99.99,Weather View 32 v60,2013-04-01 22:45:00,
2013-04-01 19:00:00,35.8,31.7,27.13,North,359,4.0,19.0,85,0.00,,,-99.99,Weather View 32 v60,2013-04-01 23:00:00,
2013-04-01 19:20:00,34.4,30.1,27.14,NW,325,8.0,19.0,84,0.00,,,-99.99,Weather View 32 v60,2013-04-01 23:20:00,
2013-04-01 19:40:00,32.1,27.8,27.14,North,355,3.0,19.0,84,0.00,,,-99.99,Weather View 32 v60,2013-04-01 23:40:00,
2013-04-01 19:45:00,32.1,27.8,27.14,North,355,3.0,19.0,84,0.00,,,-99.99,Weather View 32 v60,2013-04-01 23:45:00,
2013-04-01 20:00:00,31.7,26.5,27.15,North,0,8.0,17.0,81,0.00,,,-99.99,Weather View 32 v60,2013-04-02 00:00:00,
2013-04-01 20:20:00,30.6,23.6,27.16,NNW,347,7.0,14.0,75,0.00,,,-99.99,Weather View 32 v60,2013-04-02 00:20:00,
2013-04-01 20:40:00,30.2,21.3,27.16,NNW,345,4.0,14.0,69,0.00,,,-99.99,Weather View 32 v60,2013-04-02 00:40:00,
2013-04-01 20:46:00,30.2,21.3,27.16,NNW,345,4.0,14.0,69,0.00,,,-99.99,Weather View 32 v60,2013-04-02 00:46:00,
2013-04-01 21:00:00,29.2,20.3,27.17,NNW,334,3.0,12.0,69,0.00,,,-99.99,Weather View 32 v60,2013-04-02 01:00:00,
2013-04-01 21:20:00,28.9,20.0,27.18,NW,320,9.0,14.0,69,0.00,,,-99.99,Weather View 32 v60,2013-04-02 01:20:00,
2013-04-01 21:40:00,28.4,19.2,27.19,NNW,347,5.0,14.0,68,0.00,,,-99.99,Weather View 32 v60,2013-04-02 01:40:00,
2013-04-01 21:47:00,28.4,19.2,27.19,NNW,347,5.0,14.0,68,0.00,,,-99.99,Weather View 32 v60,2013-04-02 01:47:00,
2013-04-01 22:00:00,28.2,16.5,27.20,NW,317,3.0,14.0,61,0.00,,,-99.99,Weather View 32 v60,2013-04-02 02:00:00,
2013-04-01 22:20:00,27.8,17.6,27.20,NNW,336,3.0,13.0,65,0.00,,,-99.99,Weather View 32 v60,2013-04-02 02:20:00,
2013-04-01 22:40:00,27.4,15.3,27.20,WNW,294,3.0,13.0,60,0.00,,,-99.99,Weather View 32 v60,2013-04-02 02:40:00,
2013-04-01 22:48:00,27.4,15.3,27.20,WNW,294,3.0,13.0,60,0.00,,,-99.99,Weather View 32 v60,2013-04-02 02:48:00,
2013-04-01 23:00:00,27.2,15.1,27.20,NW,316,6.0,15.0,60,0.00,,,-99.99,Weather View 32 v60,2013-04-02 03:00:00,
2013-04-01 23:20:00,26.8,15.1,27.20,NNW,338,4.0,15.0,61,0.00,,,-99.99,Weather View 32 v60,2013-04-02 03:20:00,
2013-04-01 23:40:00,27.0,14.2,27.20,NNW,346,6.0,15.0,58,0.00,,,-99.99,Weather View 32 v60,2013-04-02 03:40:00,
2013-04-01 23:49:00,27.0,14.2,27.20,NNW,346,6.0,15.0,58,0.00,,,-99.99,Weather View 32 v60,2013-04-02 03:49:00,